Time,TemperatureF,DewpointF,PressureIn,WindDirection,WindDirectionDegrees,WindSpeedMPH,WindSpeedGustMPH,Humidity,HourlyPrecipIn,Conditions,Clouds,dailyrainin,SoftwareType,DateUTC
2013-07-27 00:04:00,55.9,53.4,30.09,NNE,18,0.0,0.0,91,0.00,,SKC,0.00,VWS V14.00,2013-07-27 04:04:00,
2013-07-27 00:09:00,55.9,53.4,30.09,NNE,18,0.0,0.0,91,0.00,,SKC,0.00,VWS V14.00,2013-07-27 04:09:00,
2013-07-27 00:19:00,55.2,52.8,30.09,NNE,18,0.0,0.0,92,0.00,,SKC,0.00,VWS V14.00,2013-07-27 04:19:00,
2013-07-27 00:24:00,55.2,52.8,30.09,NNE,18,0.0,0.0,92,0.00,,SKC,0.00,VWS V14.00,2013-07-27 04:24:00,
2013-07-27 00:29:00,55.2,52.8,30.09,NNE,18,0.0,0.0,92,0.00,,SKC,0.00,VWS V14.00,2013-07-27 04:29:00,
2013-07-27 00:34:00,55.0,52.8,30.09,NNE,18,0.0,0.0,92,0.00,,SKC,0.00,VWS V14.00,2013-07-27 04:34:00,
2013-07-27 00:39:00,55.0,52.8,30.08,NNE,18,0.0,0.0,92,0.00,,SKC,0.00,VWS V14.00,2013-07-27 04:39:00,
2013-07-27 00:44:00,54.9,52.7,30.08,NNE,18,0.0,0.0,92,0.00,,SKC,0.00,VWS V14.00,2013-07-27 04:44:00,
2013-07-27 00:49:00,54.7,52.5,30.08,NNE,18,0.0,0.0,92,0.00,,SKC,0.00,VWS V14.00,2013-07-27 04:49:00,
2013-07-27 00:54:00,54.7,52.5,30.08,NNE,18,0.0,0.0,92,0.00,,SKC,0.00,VWS V14.00,2013-07-27 04:54:00,
2013-07-27 00:59:00,54.7,52.5,30.08,NNE,18,0.0,0.0,92,0.00,,SKC,0.00,VWS V14.00,2013-07-27 04:59:00,
2013-07-27 01:04:00,54.2,52.1,30.08,NNE,18,0.0,0.0,92,0.00,,SKC,0.00,VWS V14.00,2013-07-27 05:04:00,
2013-07-27 01:09:00,54.2,52.1,30.08,NNE,18,0.0,0.0,92,0.00,,SKC,0.00,VWS V14.00,2013-07-27 05:09:00,
2013-07-27 01:14:00,53.9,51.8,30.08,NNE,18,0.0,0.0,92,0.00,,SKC,0.00,VWS V14.00,2013-07-27 05:14:00,
2013-07-27 01:20:00,53.8,51.8,30.08,NNE,18,0.0,0.0,93,0.00,,SKC,0.00,VWS V14.00,2013-07-27 05:20:00,
2013-07-27 01:25:00,53.8,51.8,30.08,NNE,18,0.0,0.0,93,0.00,,SKC,0.00,VWS V14.00,2013-07-27 05:25:00,
2013-07-27 01:30:00,53.8,51.8,30.08,NNE,18,0.0,0.0,93,0.00,,SKC,0.00,VWS V14.00,2013-07-27 05:30:00,
2013-07-27 01:35:00,53.7,51.7,30.08,NNE,18,0.0,0.0,93,0.00,,SKC,0.00,VWS V14.00,2013-07-27 05:35:00,
2013-07-27 01:37:00,53.7,51.7,30.08,NNE,18,0.0,0.0,93,0.00,,SKC,0.00,VWS V14.00,2013-07-27 05:37:00,
2013-07-27 01:40:00,53.7,51.7,30.08,NNE,18,0.0,0.0,93,0.00,,SKC,0.00,VWS V14.00,2013-07-27 05:40:00,
2013-07-27 01:45:00,53.7,51.7,30.08,NNE,18,0.0,0.0,93,0.00,,SKC,0.00,VWS V14.00,2013-07-27 05:45:00,
2013-07-27 01:55:00,53.3,51.4,30.08,NNE,18,0.0,0.0,93,0.00,,SKC,0.00,VWS V14.00,2013-07-27 05:55:00,
2013-07-27 02:04:00,53.1,51.3,30.08,NNE,18,0.0,0.0,94,0.00,,SKC,0.00,VWS V14.00,2013-07-27 06:04:00,
2013-07-27 02:05:00,53.1,51.3,30.08,NNE,18,0.0,0.0,94,0.00,,SKC,0.00,VWS V14.00,2013-07-27 06:05:00,
2013-07-27 02:10:00,53.1,51.3,30.08,NNE,18,0.0,0.0,94,0.00,,SKC,0.00,VWS V14.00,2013-07-27 06:10:00,
2013-07-27 02:25:00,52.7,51.1,30.07,NNE,18,0.0,0.0,94,0.00,,SKC,0.00,VWS V14.00,2013-07-27 06:25:00,
2013-07-27 02:30:00,52.8,51.3,30.08,NNE,18,0.0,0.0,94,0.00,,SKC,0.00,VWS V14.00,2013-07-27 06:30:00,
2013-07-27 02:35:00,52.8,51.2,30.08,NNE,18,0.0,0.0,94,0.00,,SKC,0.00,VWS V14.00,2013-07-27 06:35:00,
2013-07-27 02:40:00,52.7,51.1,30.07,NNE,18,0.0,0.0,94,0.00,,SKC,0.00,VWS V14.00,2013-07-27 06:40:00,
2013-07-27 02:45:00,52.7,51.1,30.07,NNE,18,0.0,0.0,94,0.00,,SKC,0.00,VWS V14.00,2013-07-27 06:45:00,
2013-07-27 02:50:00,52.7,51.1,30.07,NNE,18,0.0,0.0,94,0.00,,SKC,0.00,VWS V14.00,2013-07-27 06:50:00,
2013-07-27 02:55:00,52.4,50.8,30.07,NNE,18,0.0,0.0,94,0.00,,SKC,0.00,VWS V14.00,2013-07-27 06:55:00,
2013-07-27 03:00:00,52.4,50.8,30.07,NNE,18,0.0,0.0,94,0.00,,SKC,0.00,VWS V14.00,2013-07-27 07:00:00,
2013-07-27 03:05:00,52.2,50.7,30.07,NNE,18,0.0,0.0,94,0.00,,SKC,0.00,VWS V14.00,2013-07-27 07:05:00,
2013-07-27 03:10:00,52.2,50.7,30.07,NNE,18,0.0,0.0,94,0.00,,SKC,0.00,VWS V14.00,2013-07-27 07:10:00,
2013-07-27 03:14:00,52.1,50.6,30.07,NNE,18,0.0,0.0,95,0.00,,SKC,0.00,VWS V14.00,2013-07-27 07:14:00,
2013-07-27 03:15:00,52.1,50.6,30.07,NNE,18,0.0,0.0,95,0.00,,SKC,0.00,VWS V14.00,2013-07-27 07:15:00,
2013-07-27 03:20:00,52.1,50.6,30.07,NNE,18,0.0,0.0,95,0.00,,SKC,0.00,VWS V14.00,2013-07-27 07:20:00,
2013-07-27 03:30:00,51.6,50.2,30.07,NNE,18,0.0,0.0,95,0.00,,SKC,0.00,VWS V14.00,2013-07-27 07:30:00,
2013-07-27 03:35:00,51.6,50.2,30.07,NNE,18,0.0,0.0,95,0.00,,SKC,0.00,VWS V14.00,2013-07-27 07:35:00,
2013-07-27 03:36:00,51.6,50.2,30.07,NNE,18,0.0,0.0,95,0.00,,SKC,0.00,VWS V14.00,2013-07-27 07:36:00,
2013-07-27 03:40:00,51.6,50.2,30.07,NNE,18,0.0,0.0,95,0.00,,SKC,0.00,VWS V14.00,2013-07-27 07:40:00,
2013-07-27 03:45:00,51.6,50.2,30.07,NNE,18,0.0,0.0,95,0.00,,SKC,0.00,VWS V14.00,2013-07-27 07:45:00,
2013-07-27 03:56:00,51.2,49.8,30.07,NNE,18,0.0,0.0,95,0.00,,SKC,0.00,VWS V14.00,2013-07-27 07:56:00,
2013-07-27 04:05:00,51.1,49.8,30.07,NNE,18,0.0,0.0,95,0.00,,SKC,0.00,VWS V14.00,2013-07-27 08:05:00,
2013-07-27 04:10:00,51.0,49.7,30.07,NNE,18,0.0,0.0,95,0.00,,SKC,0.00,VWS V14.00,2013-07-27 08:10:00,
2013-07-27 04:15:00,50.8,49.5,30.07,NNE,18,0.0,0.0,95,0.00,,SKC,0.00,VWS V14.00,2013-07-27 08:15:00,
2013-07-27 04:20:00,50.7,49.4,30.07,NNE,18,0.0,0.0,95,0.00,,SKC,0.00,VWS V14.00,2013-07-27 08:20:00,
2013-07-27 04:25:00,50.7,49.4,30.07,NNE,18,0.0,0.0,95,0.00,,SKC,0.00,VWS V14.00,2013-07-27 08:25:00,
2013-07-27 04:30:00,50.5,49.2,30.06,NNE,18,0.0,0.0,95,0.00,,SKC,0.00,VWS V14.00,2013-07-27 08:30:00,
2013-07-27 04:35:00,50.5,49.2,30.07,NNE,18,0.0,0.0,95,0.00,,SKC,0.00,VWS V14.00,2013-07-27 08:35:00,
2013-07-27 04:38:00,50.5,49.2,30.07,NNE,18,0.0,0.0,95,0.00,,SKC,0.00,VWS V14.00,2013-07-27 08:38:00,
2013-07-27 04:40:00,50.5,49.2,30.07,NNE,18,0.0,0.0,95,0.00,,SKC,0.00,VWS V14.00,2013-07-27 08:40:00,
2013-07-27 04:45:00,50.5,49.2,30.07,NNE,18,0.0,0.0,95,0.00,,SKC,0.00,VWS V14.00,2013-07-27 08:45:00,
2013-07-27 05:00:00,50.1,48.8,30.07,NNE,18,0.0,0.0,95,0.00,,SKC,0.00,VWS V14.00,2013-07-27 09:00:00,
2013-07-27 05:05:00,50.2,48.9,30.07,NNE,18,0.0,0.0,95,0.00,,SKC,0.00,VWS V14.00,2013-07-27 09:05:00,
2013-07-27 05:06:00,50.2,48.9,30.07,NNE,18,0.0,0.0,95,0.00,,SKC,0.00,VWS V14.00,2013-07-27 09:06:00,
2013-07-27 05:10:00,50.2,48.9,30.07,NNE,18,0.0,0.0,95,0.00,,SKC,0.00,VWS V14.00,2013-07-27 09:10:00,
2013-07-27 05:15:00,50.2,48.9,30.07,NNE,18,0.0,0.0,95,0.00,,SKC,0.00,VWS V14.00,2013-07-27 09:15:00,
2013-07-27 05:30:00,50.0,48.8,30.07,NNE,18,0.0,0.0,96,0.00,,SKC,0.00,VWS V14.00,2013-07-27 09:30:00,
2013-07-27 05:35:00,49.9,48.7,30.07,NNE,18,0.0,0.0,96,0.00,,SKC,0.00,VWS V14.00,2013-07-27 09:35:00,
2013-07-27 05:40:00,49.8,48.6,30.07,NNE,18,0.0,0.0,96,0.00,,SKC,0.00,VWS V14.00,2013-07-27 09:40:00,
2013-07-27 05:45:00,49.6,48.4,30.07,NNE,18,0.0,0.0,96,0.00,,SKC,0.00,VWS V14.00,2013-07-27 09:45:00,
2013-07-27 05:50:00,49.6,48.4,30.07,NNE,18,0.0,0.0,96,0.00,,SKC,0.00,VWS V14.00,2013-07-27 09:50:00,
2013-07-27 05:55:00,49.9,48.8,30.07,NNE,18,0.0,0.0,96,0.00,,SKC,0.00,VWS V14.00,2013-07-27 09:55:00,
2013-07-27 06:00:00,50.0,48.9,30.07,NNE,18,0.0,0.0,96,0.00,,SKC,0.00,VWS V14.00,2013-07-27 10:00:00,
2013-07-27 06:05:00,50.0,48.9,30.07,NNE,18,0.0,0.0,96,0.00,,SKC,0.00,VWS V14.00,2013-07-27 10:05:00,
2013-07-27 06:10:00,50.0,48.8,30.07,NNE,18,0.0,0.0,96,0.00,,SKC,0.00,VWS V14.00,2013-07-27 10:10:00,
2013-07-27 06:15:00,50.0,48.8,30.07,NNE,18,0.0,0.0,96,0.00,,SKC,0.00,VWS V14.00,2013-07-27 10:15:00,
2013-07-27 06:20:00,50.0,48.8,30.07,NNE,18,0.0,0.0,96,0.00,,SKC,0.00,VWS V14.00,2013-07-27 10:20:00,
2013-07-27 06:25:00,50.1,49.0,30.08,NNE,18,0.0,0.0,96,0.00,,SKC,0.00,VWS V14.00,2013-07-27 10:25:00,
2013-07-27 06:30:00,50.3,49.2,30.08,NNE,18,0.0,0.0,96,0.00,,SKC,0.00,VWS V14.00,2013-07-27 10:30:00,
2013-07-27 06:34:00,50.3,49.2,30.08,NNE,18,0.0,0.0,96,0.00,,SKC,0.00,VWS V14.00,2013-07-27 10:34:00,
2013-07-27 06:36:00,50.3,49.2,30.08,NNE,18,0.0,0.0,96,0.00,,SKC,0.00,VWS V14.00,2013-07-27 10:36:00,
2013-07-27 06:41:00,50.3,49.2,30.08,NNE,18,0.0,0.0,96,0.00,,SKC,0.00,VWS V14.00,2013-07-27 10:41:00,
2013-07-27 07:01:00,51.8,50.7,30.08,NNE,18,0.0,0.0,96,0.00,,SKC,0.00,VWS V14.00,2013-07-27 11:01:00,
2013-07-27 07:06:00,51.8,50.7,30.08,NNE,18,0.0,0.0,96,0.00,,SKC,0.00,VWS V14.00,2013-07-27 11:06:00,
2013-07-27 07:11:00,52.7,51.6,30.09,NNE,18,0.0,0.0,96,0.00,,SKC,0.00,VWS V14.00,2013-07-27 11:11:00,
2013-07-27 07:16:00,52.7,51.6,30.09,NNE,18,0.0,0.0,96,0.00,,SKC,0.00,VWS V14.00,2013-07-27 11:16:00,
2013-07-27 07:21:00,54.7,53.6,30.09,NNE,18,0.0,0.0,96,0.00,,SKC,0.00,VWS V14.00,2013-07-27 11:21:00,
2013-07-27 07:26:00,55.9,54.8,30.09,NNE,18,0.0,0.0,96,0.00,,SKC,0.00,VWS V14.00,2013-07-27 11:26:00,
2013-07-27 07:31:00,56.7,55.5,30.09,NNE,18,0.0,0.0,96,0.00,,SKC,0.00,VWS V14.00,2013-07-27 11:31:00,
2013-07-27 07:36:00,57.2,56.0,30.09,NNE,18,0.0,0.0,96,0.00,,SKC,0.00,VWS V14.00,2013-07-27 11:36:00,
2013-07-27 07:41:00,57.6,56.4,30.09,North,4,0.0,1.1,96,0.00,,SKC,0.00,VWS V14.00,2013-07-27 11:41:00,
2013-07-27 07:46:00,57.6,56.4,30.09,North,4,0.0,1.1,96,0.00,,SKC,0.00,VWS V14.00,2013-07-27 11:46:00,
2013-07-27 07:51:00,57.6,56.4,30.09,North,4,0.0,1.1,96,0.00,,SKC,0.00,VWS V14.00,2013-07-27 11:51:00,
2013-07-27 07:56:00,59.1,57.7,30.08,NE,52,1.0,1.1,95,0.00,,SKC,0.00,VWS V14.00,2013-07-27 11:56:00,
2013-07-27 08:01:00,59.9,57.7,30.09,NNW,330,1.2,1.4,92,0.00,,SKC,0.00,VWS V14.00,2013-07-27 12:01:00,
2013-07-27 08:06:00,60.7,58.2,30.09,North,3,0.0,1.4,92,0.00,,SKC,0.00,VWS V14.00,2013-07-27 12:06:00,
2013-07-27 08:16:00,62.3,59.1,30.09,NNE,31,1.6,1.6,89,0.00,,SKC,0.00,VWS V14.00,2013-07-27 12:16:00,
2013-07-27 08:21:00,62.8,57.8,30.08,NE,44,0.0,2.9,84,0.00,,SKC,0.00,VWS V14.00,2013-07-27 12:21:00,
2013-07-27 08:26:00,63.1,58.4,30.08,NE,53,0.6,2.9,84,0.00,,SKC,0.00,VWS V14.00,2013-07-27 12:26:00,
2013-07-27 08:30:00,55.9,54.8,30.09,NNE,18,0.0,0.0,96,0.00,,SCT,0.00,VWS V14.00,2013-07-27 12:30:00,
2013-07-27 08:31:00,63.6,58.2,30.08,NE,53,0.0,2.9,83,0.00,,SKC,0.00,VWS V14.00,2013-07-27 12:31:00,
2013-07-27 08:36:00,63.7,58.5,30.08,NE,53,0.0,2.9,83,0.00,,SKC,0.00,VWS V14.00,2013-07-27 12:36:00,
2013-07-27 08:37:00,63.7,58.5,30.08,NE,53,0.0,2.9,83,0.00,,SKC,0.00,VWS V14.00,2013-07-27 12:37:00,
2013-07-27 08:41:00,63.7,58.5,30.08,NE,53,0.0,2.9,83,0.00,,SKC,0.00,VWS V14.00,2013-07-27 12:41:00,
2013-07-27 08:46:00,63.7,58.5,30.08,NE,53,0.0,2.9,83,0.00,,SKC,0.00,VWS V14.00,2013-07-27 12:46:00,
2013-07-27 09:01:00,66.6,59.3,30.08,East,84,0.0,2.9,78,0.00,,SKC,0.00,VWS V14.00,2013-07-27 13:01:00,
2013-07-27 09:06:00,66.8,59.3,30.08,South,180,0.0,2.9,77,0.00,,SKC,0.00,VWS V14.00,2013-07-27 13:06:00,
2013-07-27 09:11:00,67.1,58.5,30.08,South,180,0.0,2.9,74,0.00,,SKC,0.00,VWS V14.00,2013-07-27 13:11:00,
2013-07-27 09:15:00,67.1,58.5,30.08,South,180,0.0,2.9,74,0.00,,SKC,0.00,VWS V14.00,2013-07-27 13:15:00,
2013-07-27 09:16:00,67.1,58.5,30.08,South,180,0.0,2.9,74,0.00,,SKC,0.00,VWS V14.00,2013-07-27 13:16:00,
2013-07-27 09:21:00,67.1,58.5,30.08,South,180,0.0,2.9,74,0.00,,SKC,0.00,VWS V14.00,2013-07-27 13:21:00,
2013-07-27 09:31:00,68.3,59.5,30.08,South,180,0.0,2.9,74,0.00,,SKC,0.00,VWS V14.00,2013-07-27 13:31:00,
2013-07-27 09:36:00,68.3,59.5,30.08,South,180,0.0,2.9,74,0.00,,SKC,0.00,VWS V14.00,2013-07-27 13:36:00,
2013-07-27 09:41:00,68.7,59.6,30.08,South,180,0.0,2.9,73,0.00,,SKC,0.00,VWS V14.00,2013-07-27 13:41:00,
2013-07-27 09:46:00,69.7,59.5,30.07,West,276,0.0,2.9,70,0.00,,SKC,0.00,VWS V14.00,2013-07-27 13:46:00,
2013-07-27 09:52:00,70.4,59.4,30.07,South,187,1.5,2.9,68,0.00,,SKC,0.00,VWS V14.00,2013-07-27 13:52:00,
2013-07-27 09:57:00,70.9,59.7,30.07,SSE,158,0.0,2.9,68,0.00,,SKC,0.00,VWS V14.00,2013-07-27 13:57:00,
2013-07-27 10:02:00,71.5,59.5,30.07,SW,236,0.0,2.9,66,0.00,,SKC,0.00,VWS V14.00,2013-07-27 14:02:00,
2013-07-27 10:07:00,71.5,59.5,30.07,SW,236,0.0,2.9,66,0.00,,SKC,0.00,VWS V14.00,2013-07-27 14:07:00,
2013-07-27 10:12:00,71.4,59.4,30.07,SW,236,0.0,2.9,66,0.00,,SKC,0.00,VWS V14.00,2013-07-27 14:12:00,
2013-07-27 10:13:00,71.4,59.4,30.07,SW,236,0.0,2.9,66,0.00,,SKC,0.00,VWS V14.00,2013-07-27 14:13:00,
2013-07-27 10:17:00,71.4,59.4,30.07,SW,236,0.0,2.9,66,0.00,,SKC,0.00,VWS V14.00,2013-07-27 14:17:00,
2013-07-27 10:22:00,71.4,59.4,30.07,SW,236,0.0,2.9,66,0.00,,SKC,0.00,VWS V14.00,2013-07-27 14:22:00,
2013-07-27 10:32:00,71.9,59.2,30.07,NNE,22,1.3,2.9,64,0.00,,SKC,0.00,VWS V14.00,2013-07-27 14:32:00,
2013-07-27 10:37:00,71.9,59.2,30.07,NNE,22,1.3,2.9,64,0.00,,SKC,0.00,VWS V14.00,2013-07-27 14:37:00,
2013-07-27 10:42:00,72.9,59.0,30.07,North,356,0.0,2.9,62,0.00,,SKC,0.00,VWS V14.00,2013-07-27 14:42:00,
2013-07-27 10:47:00,73.6,60.5,30.06,NE,52,0.0,2.9,64,0.00,,SKC,0.00,VWS V14.00,2013-07-27 14:47:00,
2013-07-27 10:52:00,73.8,58.6,30.06,ENE,63,2.4,2.9,59,0.00,,SKC,0.00,VWS V14.00,2013-07-27 14:52:00,
2013-07-27 10:57:00,73.9,59.4,30.06,NW,322,0.8,2.9,61,0.00,,SKC,0.00,VWS V14.00,2013-07-27 14:57:00,
2013-07-27 11:02:00,74.5,59.1,30.06,NNE,27,2.9,2.9,59,0.00,,SKC,0.00,VWS V14.00,2013-07-27 15:02:00,
2013-07-27 11:07:00,74.5,59.1,30.06,NNE,27,2.9,2.9,59,0.00,,SKC,0.00,VWS V14.00,2013-07-27 15:07:00,
2013-07-27 11:12:00,75.1,59.1,30.06,NE,44,2.2,2.9,58,0.00,,SKC,0.00,VWS V14.00,2013-07-27 15:12:00,
2013-07-27 11:17:00,75.2,59.5,30.06,NNW,345,2.9,3.7,58,0.00,,SKC,0.00,VWS V14.00,2013-07-27 15:17:00,
2013-07-27 11:22:00,75.2,58.4,30.06,South,181,3.6,3.7,56,0.00,,SKC,0.00,VWS V14.00,2013-07-27 15:22:00,
2013-07-27 11:27:00,76.1,59.2,30.05,North,3,0.0,0.0,56,0.00,,SKC,0.00,VWS V14.00,2013-07-27 15:27:00,
2013-07-27 11:32:00,76.6,59.3,30.05,SE,136,1.2,1.2,55,0.00,,SKC,0.00,VWS V14.00,2013-07-27 15:32:00,
2013-07-27 11:37:00,77.1,59.2,30.05,NE,53,0.7,1.2,54,0.00,,SKC,0.00,VWS V14.00,2013-07-27 15:37:00,
2013-07-27 11:42:00,77.7,58.8,30.05,South,174,0.0,1.5,52,0.00,,SKC,0.00,VWS V14.00,2013-07-27 15:42:00,
2013-07-27 11:47:00,77.9,59.2,30.05,East,93,1.1,1.5,53,0.00,,SKC,0.00,VWS V14.00,2013-07-27 15:47:00,
2013-07-27 11:52:00,77.9,59.2,30.05,East,93,1.1,1.5,53,0.00,,SKC,0.00,VWS V14.00,2013-07-27 15:52:00,
2013-07-27 11:57:00,77.7,58.8,30.05,West,267,0.0,1.5,52,0.00,,SKC,0.00,VWS V14.00,2013-07-27 15:57:00,
2013-07-27 12:02:00,77.8,59.7,30.05,NE,38,0.0,1.5,54,0.00,,SKC,0.00,VWS V14.00,2013-07-27 16:02:00,
2013-07-27 12:07:00,77.5,59.6,30.05,NE,38,0.0,1.5,54,0.00,,SKC,0.00,VWS V14.00,2013-07-27 16:07:00,
2013-07-27 12:12:00,77.5,59.6,30.05,NE,38,0.0,1.5,54,0.00,,SKC,0.00,VWS V14.00,2013-07-27 16:12:00,
2013-07-27 12:22:00,78.5,57.5,30.04,NNE,30,0.0,2.7,49,0.00,,SKC,0.00,VWS V14.00,2013-07-27 16:22:00,
2013-07-27 12:27:00,78.7,58.2,30.04,NNE,30,0.0,2.7,49,0.00,,SKC,0.00,VWS V14.00,2013-07-27 16:27:00,
2013-07-27 12:30:00,76.0,59.1,30.05,North,3,0.0,3.7,56,0.00,,SCT,0.00,VWS V14.00,2013-07-27 16:30:00,
2013-07-27 12:32:00,78.2,59.0,30.04,WNW,300,0.0,2.7,52,0.00,,SKC,0.00,VWS V14.00,2013-07-27 16:32:00,
2013-07-27 12:37:00,79.0,58.6,30.04,North,10,0.0,2.7,50,0.00,,SKC,0.00,VWS V14.00,2013-07-27 16:37:00,
2013-07-27 12:42:00,79.3,57.6,30.03,SW,222,0.6,2.7,47,0.00,,SKC,0.00,VWS V14.00,2013-07-27 16:42:00,
2013-07-27 12:47:00,79.9,58.1,30.03,South,172,1.2,2.7,47,0.00,,SKC,0.00,VWS V14.00,2013-07-27 16:47:00,
2013-07-27 12:52:00,79.9,58.4,30.03,SW,221,0.0,2.7,48,0.00,,SKC,0.00,VWS V14.00,2013-07-27 16:52:00,
2013-07-27 12:57:00,80.4,57.2,30.03,North,10,1.1,1.4,45,0.00,,SKC,0.00,VWS V14.00,2013-07-27 16:57:00,
2013-07-27 13:02:00,80.3,59.4,30.03,NNE,18,0.0,1.4,49,0.00,,SKC,0.00,VWS V14.00,2013-07-27 17:02:00,
2013-07-27 13:07:00,80.3,59.4,30.03,NNE,18,0.0,1.4,49,0.00,,SKC,0.00,VWS V14.00,2013-07-27 17:07:00,
2013-07-27 13:12:00,80.7,56.7,30.03,NE,55,0.0,1.4,44,0.00,,SKC,0.00,VWS V14.00,2013-07-27 17:12:00,
2013-07-27 13:17:00,80.7,56.3,30.03,NNE,20,4.1,4.1,43,0.00,,SKC,0.00,VWS V14.00,2013-07-27 17:17:00,
2013-07-27 13:22:00,80.7,56.3,30.03,NNE,20,4.1,4.1,43,0.00,,SKC,0.00,VWS V14.00,2013-07-27 17:22:00,
2013-07-27 13:27:00,80.7,56.3,30.03,NNE,20,4.1,4.1,43,0.00,,SKC,0.00,VWS V14.00,2013-07-27 17:27:00,
2013-07-27 13:32:00,81.3,58.8,30.02,NNW,340,0.2,4.1,46,0.00,,SKC,0.00,VWS V14.00,2013-07-27 17:32:00,
2013-07-27 13:37:00,81.3,58.8,30.02,NNW,340,0.2,4.1,46,0.00,,SKC,0.00,VWS V14.00,2013-07-27 17:37:00,
2013-07-27 13:42:00,80.5,58.1,30.02,NW,307,1.7,4.1,46,0.00,,SKC,0.00,VWS V14.00,2013-07-27 17:42:00,
2013-07-27 13:47:00,80.5,58.1,30.02,NW,307,1.7,4.1,46,0.00,,SKC,0.00,VWS V14.00,2013-07-27 17:47:00,
2013-07-27 13:52:00,80.7,58.5,30.01,WSW,243,0.0,4.1,47,0.00,,SKC,0.00,VWS V14.00,2013-07-27 17:52:00,
2013-07-27 13:57:00,81.3,56.8,30.00,NNE,21,0.0,0.0,43,0.00,,SKC,0.00,VWS V14.00,2013-07-27 17:57:00,
2013-07-27 14:00:00,80.3,57.1,30.03,North,7,1.4,2.7,45,0.00,,SCT,0.00,VWS V14.00,2013-07-27 18:00:00,
2013-07-27 14:02:00,81.6,58.8,30.00,North,359,3.0,3.0,46,0.00,,SKC,0.00,VWS V14.00,2013-07-27 18:02:00,
2013-07-27 14:07:00,81.6,57.2,30.00,NNE,24,1.9,3.0,43,0.00,,SKC,0.00,VWS V14.00,2013-07-27 18:07:00,
2013-07-27 14:12:00,81.4,58.8,30.00,NW,311,0.0,3.0,46,0.00,,SKC,0.00,VWS V14.00,2013-07-27 18:12:00,
2013-07-27 14:17:00,81.4,58.8,30.00,NW,311,0.0,3.0,46,0.00,,SKC,0.00,VWS V14.00,2013-07-27 18:17:00,
2013-07-27 14:22:00,81.3,58.4,30.00,SW,228,0.0,3.0,46,0.00,,SKC,0.00,VWS V14.00,2013-07-27 18:22:00,
2013-07-27 14:28:00,81.5,58.8,30.00,SW,228,0.0,3.0,46,0.00,,SKC,0.00,VWS V14.00,2013-07-27 18:28:00,
2013-07-27 14:33:00,81.9,58.1,30.00,South,173,2.7,3.0,44,0.00,,SKC,0.00,VWS V14.00,2013-07-27 18:33:00,
2013-07-27 14:38:00,82.4,59.3,30.00,SW,218,2.5,3.0,46,0.00,,SKC,0.00,VWS V14.00,2013-07-27 18:38:00,
2013-07-27 14:43:00,82.8,57.7,30.00,South,191,3.0,3.0,42,0.00,,SKC,0.00,VWS V14.00,2013-07-27 18:43:00,
2013-07-27 14:48:00,82.8,57.7,30.00,South,191,3.0,3.0,42,0.00,,SKC,0.00,VWS V14.00,2013-07-27 18:48:00,
2013-07-27 14:53:00,82.5,58.2,30.00,SSE,153,1.6,3.0,44,0.00,,SKC,0.00,VWS V14.00,2013-07-27 18:53:00,
2013-07-27 14:58:00,82.5,58.2,30.00,SSE,153,1.6,3.0,44,0.00,,SKC,0.00,VWS V14.00,2013-07-27 18:58:00,
2013-07-27 15:00:00,81.3,56.9,30.00,NNE,21,0.0,4.1,43,0.00,,SCT,0.00,VWS V14.00,2013-07-27 19:00:00,
2013-07-27 15:03:00,82.4,57.4,30.00,South,174,0.0,3.0,43,0.00,,SKC,0.00,VWS V14.00,2013-07-27 19:03:00,
2013-07-27 15:08:00,82.5,57.6,30.00,SSW,197,2.9,3.0,43,0.00,,SKC,0.00,VWS V14.00,2013-07-27 19:08:00,
2013-07-27 15:13:00,82.4,58.6,30.00,SSE,167,2.4,3.0,44,0.00,,SKC,0.00,VWS V14.00,2013-07-27 19:13:00,
2013-07-27 15:18:00,82.2,58.1,30.00,WSW,253,1.1,4.8,44,0.00,,SKC,0.00,VWS V14.00,2013-07-27 19:18:00,
2013-07-27 15:23:00,81.8,58.3,29.99,SSE,167,2.2,4.8,45,0.00,,SKC,0.00,VWS V14.00,2013-07-27 19:23:00,
2013-07-27 15:28:00,82.0,58.3,29.99,ENE,65,0.0,0.0,44,0.00,,SKC,0.00,VWS V14.00,2013-07-27 19:28:00,
2013-07-27 15:33:00,82.1,59.3,29.99,ENE,65,0.0,0.0,46,0.00,,SKC,0.00,VWS V14.00,2013-07-27 19:33:00,
2013-07-27 15:38:00,81.6,59.1,29.99,WSW,239,2.7,2.7,46,0.00,,SKC,0.00,VWS V14.00,2013-07-27 19:38:00,
2013-07-27 15:43:00,81.4,59.1,29.99,East,98,0.0,2.7,47,0.00,,SKC,0.00,VWS V14.00,2013-07-27 19:43:00,
2013-07-27 15:48:00,81.5,59.3,29.99,South,188,0.0,2.7,47,0.00,,SKC,0.00,VWS V14.00,2013-07-27 19:48:00,
2013-07-27 15:53:00,81.7,59.5,29.99,SSE,159,0.4,2.7,47,0.00,,SKC,0.00,VWS V14.00,2013-07-27 19:53:00,
2013-07-27 15:58:00,81.7,59.5,29.99,SSE,159,0.4,2.7,47,0.00,,SKC,0.00,VWS V14.00,2013-07-27 19:58:00,
2013-07-27 16:03:00,81.8,57.4,29.98,SSE,148,3.2,7.7,43,0.00,,SKC,0.00,VWS V14.00,2013-07-27 20:03:00,
2013-07-27 16:08:00,81.8,57.4,29.98,SSE,148,3.2,7.7,43,0.00,,SKC,0.00,VWS V14.00,2013-07-27 20:08:00,
2013-07-27 16:13:00,82.5,57.8,29.97,SW,217,2.8,7.7,43,0.00,,SKC,0.00,VWS V14.00,2013-07-27 20:13:00,
2013-07-27 16:18:00,82.8,56.7,29.97,SSE,163,4.4,7.7,41,0.00,,SKC,0.00,VWS V14.00,2013-07-27 20:18:00,
2013-07-27 16:23:00,82.7,54.7,29.97,South,180,5.0,7.7,38,0.00,,SKC,0.00,VWS V14.00,2013-07-27 20:23:00,
2013-07-27 16:28:00,82.7,54.7,29.97,South,180,5.0,7.7,38,0.00,,SKC,0.00,VWS V14.00,2013-07-27 20:28:00,
2013-07-27 16:30:00,81.9,58.6,29.99,ENE,65,0.0,4.8,45,0.00,,SCT,0.00,VWS V14.00,2013-07-27 20:30:00,
2013-07-27 16:33:00,83.1,57.0,29.97,South,184,1.1,7.7,41,0.00,,SKC,0.00,VWS V14.00,2013-07-27 20:33:00,
2013-07-27 16:38:00,83.0,55.2,29.97,SW,231,1.4,7.7,39,0.00,,SKC,0.00,VWS V14.00,2013-07-27 20:38:00,
2013-07-27 16:43:00,83.0,56.2,29.97,SW,222,0.0,7.7,40,0.00,,SKC,0.00,VWS V14.00,2013-07-27 20:43:00,
2013-07-27 16:48:00,83.1,56.7,29.97,WSW,242,1.4,7.7,40,0.00,,SKC,0.00,VWS V14.00,2013-07-27 20:48:00,
2013-07-27 16:53:00,83.1,56.7,29.97,WSW,242,1.4,7.7,40,0.00,,SKC,0.00,VWS V14.00,2013-07-27 20:53:00,
2013-07-27 16:58:00,83.2,56.9,29.97,SW,226,3.1,7.7,41,0.00,,SKC,0.00,VWS V14.00,2013-07-27 20:58:00,
2013-07-27 17:03:00,83.2,55.8,29.96,SW,229,2.8,7.7,39,0.00,,SKC,0.00,VWS V14.00,2013-07-27 21:03:00,
2013-07-27 17:08:00,83.2,55.8,29.96,SW,229,2.8,7.7,39,0.00,,SKC,0.00,VWS V14.00,2013-07-27 21:08:00,
2013-07-27 17:13:00,83.2,55.8,29.96,SW,229,2.8,7.7,39,0.00,,SKC,0.00,VWS V14.00,2013-07-27 21:13:00,
2013-07-27 17:18:00,82.6,56.6,29.96,South,170,3.8,7.7,41,0.00,,SKC,0.00,VWS V14.00,2013-07-27 21:18:00,
2013-07-27 17:23:00,82.5,56.8,29.96,ESE,103,0.0,7.7,42,0.00,,SKC,0.00,VWS V14.00,2013-07-27 21:23:00,
2013-07-27 17:28:00,82.5,56.8,29.96,ESE,103,0.0,7.7,42,0.00,,SKC,0.00,VWS V14.00,2013-07-27 21:28:00,
2013-07-27 17:33:00,82.4,58.7,29.95,SSE,163,0.0,7.7,45,0.00,,SKC,0.00,VWS V14.00,2013-07-27 21:33:00,
2013-07-27 17:38:00,82.7,58.3,29.95,SSE,160,1.7,7.7,44,0.00,,SKC,0.00,VWS V14.00,2013-07-27 21:38:00,
2013-07-27 17:43:00,82.9,59.2,29.95,WSW,238,0.0,7.7,45,0.00,,SKC,0.00,VWS V14.00,2013-07-27 21:43:00,
2013-07-27 17:48:00,82.9,58.7,29.95,WSW,238,0.0,7.7,44,0.00,,SKC,0.00,VWS V14.00,2013-07-27 21:48:00,
2013-07-27 17:53:00,82.8,59.2,29.95,WSW,238,0.0,7.7,45,0.00,,SKC,0.00,VWS V14.00,2013-07-27 21:53:00,
2013-07-27 17:58:00,82.8,59.2,29.95,WSW,238,0.0,7.7,45,0.00,,SKC,0.00,VWS V14.00,2013-07-27 21:58:00,
2013-07-27 18:03:00,83.2,59.2,29.94,WSW,238,0.0,7.7,44,0.00,,SKC,0.00,VWS V14.00,2013-07-27 22:03:00,
2013-07-27 18:08:00,83.0,58.5,29.94,NE,53,0.0,7.7,43,0.00,,SKC,0.00,VWS V14.00,2013-07-27 22:08:00,
2013-07-27 18:13:00,82.8,58.4,29.94,South,191,1.4,7.7,44,0.00,,SKC,0.00,VWS V14.00,2013-07-27 22:13:00,
2013-07-27 18:18:00,82.4,59.3,29.94,SSE,148,0.0,7.7,46,0.00,,SKC,0.00,VWS V14.00,2013-07-27 22:18:00,
2013-07-27 18:23:00,81.9,59.2,29.94,SSE,148,0.0,7.7,46,0.00,,SKC,0.00,VWS V14.00,2013-07-27 22:23:00,
2013-07-27 18:28:00,81.5,58.9,29.94,SSE,148,0.0,0.0,46,0.00,,SKC,0.00,VWS V14.00,2013-07-27 22:28:00,
2013-07-27 18:33:00,81.4,60.4,29.94,SSE,148,0.0,0.0,49,0.00,,SKC,0.00,VWS V14.00,2013-07-27 22:33:00,
2013-07-27 18:38:00,81.1,61.2,29.93,SSE,148,0.0,0.0,51,0.00,,SKC,0.00,VWS V14.00,2013-07-27 22:38:00,
2013-07-27 18:43:00,80.9,61.4,29.93,SSE,148,0.0,0.0,52,0.00,,SKC,0.00,VWS V14.00,2013-07-27 22:43:00,
2013-07-27 18:48:00,80.6,63.5,29.93,NNE,21,0.0,0.0,56,0.00,,SKC,0.00,VWS V14.00,2013-07-27 22:48:00,
2013-07-27 18:53:00,80.2,61.9,29.94,NE,37,0.0,0.0,54,0.00,,SKC,0.00,VWS V14.00,2013-07-27 22:53:00,
2013-07-27 18:58:00,80.0,61.9,29.93,NW,309,0.0,0.0,54,0.00,,SKC,0.00,VWS V14.00,2013-07-27 22:58:00,
2013-07-27 19:03:00,79.5,61.6,29.94,NE,39,0.7,0.7,54,0.00,,SKC,0.00,VWS V14.00,2013-07-27 23:03:00,
2013-07-27 19:08:00,79.2,62.0,29.94,NE,44,0.9,0.9,56,0.00,,SKC,0.00,VWS V14.00,2013-07-27 23:08:00,
2013-07-27 19:13:00,78.7,62.0,29.94,NE,48,0.0,0.9,56,0.00,,SKC,0.00,VWS V14.00,2013-07-27 23:13:00,
2013-07-27 19:18:00,78.7,61.9,29.94,NE,48,0.0,0.9,56,0.00,,SKC,0.00,VWS V14.00,2013-07-27 23:18:00,
2013-07-27 19:23:00,78.4,62.1,29.95,NE,48,0.0,0.9,57,0.00,,SKC,0.00,VWS V14.00,2013-07-27 23:23:00,
2013-07-27 19:28:00,78.4,62.1,29.95,NE,48,0.0,0.9,57,0.00,,SKC,0.00,VWS V14.00,2013-07-27 23:28:00,
2013-07-27 19:30:00,81.6,59.7,29.94,SSE,148,0.0,7.7,47,0.00,,SCT,0.00,VWS V14.00,2013-07-27 23:30:00,
2013-07-27 19:33:00,77.9,61.9,29.95,WSW,255,0.0,0.9,58,0.00,,SKC,0.00,VWS V14.00,2013-07-27 23:33:00,
2013-07-27 19:38:00,78.0,61.9,29.95,NE,49,0.0,0.9,58,0.00,,SKC,0.00,VWS V14.00,2013-07-27 23:38:00,
2013-07-27 19:43:00,77.9,60.9,29.95,SW,214,1.3,4.7,56,0.00,,SKC,0.00,VWS V14.00,2013-07-27 23:43:00,
2013-07-27 19:48:00,77.9,60.1,29.95,NNE,21,0.3,4.7,54,0.00,,SKC,0.00,VWS V14.00,2013-07-27 23:48:00,
2013-07-27 19:53:00,77.9,60.9,29.95,NNE,32,0.0,4.7,56,0.00,,SKC,0.00,VWS V14.00,2013-07-27 23:53:00,
2013-07-27 19:58:00,77.8,61.2,29.95,NNE,32,0.0,4.7,57,0.00,,SKC,0.00,VWS V14.00,2013-07-27 23:58:00,
2013-07-27 20:00:00,80.0,61.9,29.93,NW,309,0.0,0.0,54,0.00,,SCT,0.00,VWS V14.00,2013-07-28 00:00:00,
2013-07-27 20:03:00,77.0,61.5,29.95,NW,309,0.5,4.7,59,0.00,,SKC,0.00,VWS V14.00,2013-07-28 00:03:00,
2013-07-27 20:08:00,76.4,62.0,29.95,NE,37,0.2,4.7,61,0.00,,SKC,0.00,VWS V14.00,2013-07-28 00:08:00,
2013-07-27 20:13:00,76.0,62.4,29.95,NE,37,0.0,4.7,63,0.00,,SKC,0.00,VWS V14.00,2013-07-28 00:13:00,
2013-07-27 20:18:00,75.2,62.0,29.95,NE,37,0.0,4.7,64,0.00,,SKC,0.00,VWS V14.00,2013-07-28 00:18:00,
2013-07-27 20:23:00,74.9,62.5,29.95,NE,37,0.0,4.7,65,0.00,,SKC,0.00,VWS V14.00,2013-07-28 00:23:00,
2013-07-27 20:28:00,74.6,62.7,29.95,NE,37,0.0,4.7,66,0.00,,SKC,0.00,VWS V14.00,2013-07-28 00:28:00,
2013-07-27 20:34:00,74.5,62.5,29.95,NE,37,0.0,4.7,66,0.00,,OVC,0.00,VWS V14.00,2013-07-28 00:34:00,
2013-07-27 20:49:00,74.1,62.2,29.96,South,173,2.9,3.0,66,0.01,,OVC,0.00,VWS V14.00,2013-07-28 00:49:00,
2013-07-27 20:54:00,74.2,61.6,29.96,West,263,2.2,4.4,65,0.00,,OVC,0.00,VWS V14.00,2013-07-28 00:54:00,
2013-07-27 20:59:00,74.6,59.4,29.96,South,169,4.0,7.0,59,0.00,,OVC,0.00,VWS V14.00,2013-07-28 00:59:00,
2013-07-27 21:04:00,74.8,58.7,29.96,SSE,163,6.6,8.3,57,0.00,,OVC,0.00,VWS V14.00,2013-07-28 01:04:00,
2013-07-27 21:09:00,74.7,58.4,29.96,SSE,166,4.1,10.0,57,0.00,,OVC,0.00,VWS V14.00,2013-07-28 01:09:00,
2013-07-27 21:14:00,74.6,58.5,29.96,SSW,198,5.0,10.0,57,0.00,,OVC,0.00,VWS V14.00,2013-07-28 01:14:00,
2013-07-27 21:19:00,74.4,58.4,29.96,South,170,2.2,10.0,58,0.00,,OVC,0.00,VWS V14.00,2013-07-28 01:19:00,
2013-07-27 21:24:00,74.2,58.7,29.97,South,176,3.1,10.0,58,0.00,,OVC,0.00,VWS V14.00,2013-07-28 01:24:00,
2013-07-27 21:29:00,73.9,58.9,29.97,South,180,7.6,8.1,60,0.00,,OVC,0.00,VWS V14.00,2013-07-28 01:29:00,
2013-07-27 21:34:00,73.6,59.2,29.97,SSW,193,7.2,8.8,61,0.00,,OVC,0.00,VWS V14.00,2013-07-28 01:34:00,
2013-07-27 21:39:00,73.3,59.3,29.97,South,187,4.3,8.8,62,0.00,,OVC,0.00,VWS V14.00,2013-07-28 01:39:00,
2013-07-27 21:44:00,73.0,59.7,29.97,South,177,5.8,8.8,63,0.00,,OVC,0.00,VWS V14.00,2013-07-28 01:44:00,
2013-07-27 21:50:00,72.7,59.9,29.97,SW,226,4.1,8.8,64,0.00,,OVC,0.00,VWS V14.00,2013-07-28 01:50:00,
2013-07-27 21:55:00,72.2,60.0,29.98,SW,221,4.5,8.9,66,0.00,,OVC,0.00,VWS V14.00,2013-07-28 01:55:00,
2013-07-27 22:00:00,71.6,60.4,29.98,WSW,252,6.2,7.8,68,0.00,,OVC,0.00,VWS V14.00,2013-07-28 02:00:00,
2013-07-27 22:05:00,71.0,61.1,29.98,South,191,1.7,9.7,71,0.00,,OVC,0.00,VWS V14.00,2013-07-28 02:05:00,
2013-07-27 22:10:00,70.2,61.7,29.98,SSW,193,3.9,9.7,74,0.00,,OVC,0.00,VWS V14.00,2013-07-28 02:10:00,
2013-07-27 22:15:00,69.6,62.0,29.98,SSE,163,5.7,9.7,77,0.00,,OVC,0.00,VWS V14.00,2013-07-28 02:15:00,
2013-07-27 22:20:00,69.4,62.4,29.98,SSW,197,2.1,9.7,78,0.00,,OVC,0.00,VWS V14.00,2013-07-28 02:20:00,
2013-07-27 22:25:00,68.8,62.6,29.98,SW,233,3.2,9.7,80,0.00,,OVC,0.00,VWS V14.00,2013-07-28 02:25:00,
2013-07-27 22:30:00,68.6,62.9,29.98,SSE,165,4.9,7.2,82,0.00,,OVC,0.01,VWS V14.00,2013-07-28 02:30:00,
2013-07-27 22:35:00,68.4,63.1,29.98,SSE,156,5.0,7.3,83,0.00,,OVC,0.01,VWS V14.00,2013-07-28 02:35:00,
2013-07-27 22:40:00,68.2,63.3,29.98,South,188,3.7,7.3,84,0.00,,OVC,0.01,VWS V14.00,2013-07-28 02:40:00,
2013-07-27 22:45:00,67.9,63.4,29.98,SSW,198,4.8,8.7,86,0.00,,OVC,0.01,VWS V14.00,2013-07-28 02:45:00,
2013-07-27 22:50:00,67.9,63.6,29.98,South,170,2.5,11.1,86,0.00,,OVC,0.01,VWS V14.00,2013-07-28 02:50:00,
2013-07-27 22:55:00,67.9,63.7,29.98,SSW,207,4.1,11.1,86,0.01,,OVC,0.02,VWS V14.00,2013-07-28 02:55:00,
2013-07-27 23:00:00,67.8,63.6,29.97,SSE,163,4.5,6.9,86,0.01,,OVC,0.02,VWS V14.00,2013-07-28 03:00:00,
2013-07-27 23:05:00,67.9,63.6,29.97,NE,49,0.0,6.9,86,0.01,,OVC,0.02,VWS V14.00,2013-07-28 03:05:00,
2013-07-27 23:10:00,67.8,63.6,29.97,SE,128,3.5,7.2,86,0.02,,OVC,0.03,VWS V14.00,2013-07-28 03:10:00,
2013-07-27 23:15:00,67.7,63.8,29.97,SSE,165,1.7,7.2,87,0.02,,OVC,0.03,VWS V14.00,2013-07-28 03:15:00,
2013-07-27 23:20:00,67.5,63.6,29.97,SE,138,2.0,10.9,87,0.02,,OVC,0.03,VWS V14.00,2013-07-28 03:20:00,
2013-07-27 23:25:00,67.7,63.8,29.97,SSE,159,1.6,10.9,87,0.02,,OVC,0.04,VWS V14.00,2013-07-28 03:25:00,
2013-07-27 23:30:00,67.5,63.6,29.97,South,169,4.5,6.6,87,0.02,,OVC,0.04,VWS V14.00,2013-07-28 03:30:00,
2013-07-27 23:35:00,67.7,63.8,29.97,South,170,2.4,6.6,87,0.02,,OVC,0.04,VWS V14.00,2013-07-28 03:35:00,
2013-07-27 23:40:00,67.7,63.8,29.97,ESE,120,1.2,6.6,87,0.02,,OVC,0.04,VWS V14.00,2013-07-28 03:40:00,
2013-07-27 23:45:00,67.4,63.7,29.97,South,174,1.8,6.6,88,0.03,,OVC,0.05,VWS V14.00,2013-07-28 03:45:00,
2013-07-27 23:50:00,67.3,63.7,29.97,South,177,2.2,6.6,88,0.03,,OVC,0.05,VWS V14.00,2013-07-28 03:50:00,
2013-07-27 23:55:00,67.3,63.8,29.97,East,98,0.0,6.6,88,0.03,,OVC,0.06,VWS V14.00,2013-07-28 03:55:00,